sensor_id;sensor_type;location;lat;lon;timestamp;temperature;humidity
62581;DHT22;48640;48.770;9.148;2023-07-29T00:01:54;18.10;99.90
62581;DHT22;48640;48.770;9.148;2023-07-29T00:04:21;18.10;99.90
62581;DHT22;48640;48.770;9.148;2023-07-29T00:06:48;18.00;99.90
62581;DHT22;48640;48.770;9.148;2023-07-29T00:09:14;18.10;99.90
62581;DHT22;48640;48.770;9.148;2023-07-29T00:11:43;18.10;99.90
62581;DHT22;48640;48.770;9.148;2023-07-29T00:14:09;18.10;99.90
62581;DHT22;48640;48.770;9.148;2023-07-29T00:16:36;18.10;99.90
62581;DHT22;48640;48.770;9.148;2023-07-29T00:19:03;18.10;99.90
62581;DHT22;48640;48.770;9.148;2023-07-29T00:21:30;18.10;99.90
62581;DHT22;48640;48.770;9.148;2023-07-29T00:23:56;18.20;99.90
62581;DHT22;48640;48.770;9.148;2023-07-29T00:26:24;18.20;99.90
62581;DHT22;48640;48.770;9.148;2023-07-29T00:28:55;18.20;99.90
62581;DHT22;48640;48.770;9.148;2023-07-29T00:31:22;18.20;99.90
62581;DHT22;48640;48.770;9.148;2023-07-29T00:33:49;18.20;99.90
62581;DHT22;48640;48.770;9.148;2023-07-29T00:36:16;18.30;99.90
62581;DHT22;48640;48.770;9.148;2023-07-29T00:38:42;18.20;99.90
62581;DHT22;48640;48.770;9.148;2023-07-29T00:41:10;18.30;99.90
62581;DHT22;48640;48.770;9.148;2023-07-29T00:43:38;18.30;99.90
62581;DHT22;48640;48.770;9.148;2023-07-29T00:46:07;18.30;99.90
62581;DHT22;48640;48.770;9.148;2023-07-29T00:48:35;18.30;99.90
62581;DHT22;48640;48.770;9.148;2023-07-29T00:51:02;18.30;99.90
62581;DHT22;48640;48.770;9.148;2023-07-29T00:53:29;18.40;99.90
62581;DHT22;48640;48.770;9.148;2023-07-29T00:55:56;18.40;99.90
62581;DHT22;48640;48.770;9.148;2023-07-29T00:58:22;18.40;99.90
62581;DHT22;48640;48.770;9.148;2023-07-29T01:00:50;18.40;99.90
62581;DHT22;48640;48.770;9.148;2023-07-29T01:03:18;18.40;99.90
62581;DHT22;48640;48.770;9.148;2023-07-29T01:05:50;18.40;99.90
62581;DHT22;48640;48.770;9.148;2023-07-29T01:08:27;18.50;99.90
62581;DHT22;48640;48.770;9.148;2023-07-29T01:11:01;18.40;99.90
62581;DHT22;48640;48.770;9.148;2023-07-29T01:13:35;18.40;99.90
62581;DHT22;48640;48.770;9.148;2023-07-29T01:16:07;18.40;99.90
62581;DHT22;48640;48.770;9.148;2023-07-29T01:18:39;18.30;99.90
62581;DHT22;48640;48.770;9.148;2023-07-29T01:21:08;18.30;99.90
62581;DHT22;48640;48.770;9.148;2023-07-29T01:23:36;18.30;99.90
62581;DHT22;48640;48.770;9.148;2023-07-29T01:26:03;18.30;99.90
62581;DHT22;48640;48.770;9.148;2023-07-29T01:28:30;18.30;99.90
62581;DHT22;48640;48.770;9.148;2023-07-29T01:31:03;18.30;99.90
62581;DHT22;48640;48.770;9.148;2023-07-29T01:33:38;18.30;99.90
62581;DHT22;48640;48.770;9.148;2023-07-29T01:36:10;18.30;99.90
62581;DHT22;48640;48.770;9.148;2023-07-29T01:38:41;18.30;99.90
62581;DHT22;48640;48.770;9.148;2023-07-29T01:41:09;18.30;99.90
62581;DHT22;48640;48.770;9.148;2023-07-29T01:43:36;18.30;99.90
62581;DHT22;48640;48.770;9.148;2023-07-29T01:46:09;18.30;99.90
62581;DHT22;48640;48.770;9.148;2023-07-29T01:48:36;18.30;99.90
62581;DHT22;48640;48.770;9.148;2023-07-29T01:51:03;18.30;99.90
62581;DHT22;48640;48.770;9.148;2023-07-29T01:53:30;18.30;99.90
62581;DHT22;48640;48.770;9.148;2023-07-29T01:55:58;18.20;99.90
62581;DHT22;48640;48.770;9.148;2023-07-29T01:58:25;18.20;99.90
62581;DHT22;48640;48.770;9.148;2023-07-29T02:00:52;18.20;99.90
62581;DHT22;48640;48.770;9.148;2023-07-29T02:03:19;18.30;99.90
62581;DHT22;48640;48.770;9.148;2023-07-29T02:05:45;18.20;99.90
62581;DHT22;48640;48.770;9.148;2023-07-29T02:08:12;18.20;99.90
62581;DHT22;48640;48.770;9.148;2023-07-29T02:10:39;18.10;99.90
62581;DHT22;48640;48.770;9.148;2023-07-29T02:13:07;18.20;99.90
62581;DHT22;48640;48.770;9.148;2023-07-29T02:15:34;18.20;99.90
62581;DHT22;48640;48.770;9.148;2023-07-29T02:18:01;18.10;99.90
62581;DHT22;48640;48.770;9.148;2023-07-29T02:20:29;18.10;99.90
62581;DHT22;48640;48.770;9.148;2023-07-29T02:22:55;18.00;99.90
62581;DHT22;48640;48.770;9.148;2023-07-29T02:25:22;18.00;99.90
62581;DHT22;48640;48.770;9.148;2023-07-29T02:27:49;18.00;99.90
62581;DHT22;48640;48.770;9.148;2023-07-29T02:30:17;18.00;99.90
62581;DHT22;48640;48.770;9.148;2023-07-29T02:32:44;18.10;99.90
62581;DHT22;48640;48.770;9.148;2023-07-29T02:35:12;18.00;99.90
62581;DHT22;48640;48.770;9.148;2023-07-29T02:37:38;18.00;99.90
62581;DHT22;48640;48.770;9.148;2023-07-29T02:40:06;18.00;99.90
62581;DHT22;48640;48.770;9.148;2023-07-29T02:42:34;18.10;99.90
62581;DHT22;48640;48.770;9.148;2023-07-29T02:45:01;18.00;99.90
62581;DHT22;48640;48.770;9.148;2023-07-29T02:47:29;18.10;99.90
62581;DHT22;48640;48.770;9.148;2023-07-29T02:49:56;18.10;99.90
62581;DHT22;48640;48.770;9.148;2023-07-29T02:52:22;18.10;99.90
62581;DHT22;48640;48.770;9.148;2023-07-29T02:54:49;18.20;99.90
62581;DHT22;48640;48.770;9.148;2023-07-29T02:57:16;18.10;99.90
62581;DHT22;48640;48.770;9.148;2023-07-29T02:59:43;18.10;99.90
62581;DHT22;48640;48.770;9.148;2023-07-29T03:02:10;18.10;99.90
62581;DHT22;48640;48.770;9.148;2023-07-29T03:04:39;18.10;99.90
62581;DHT22;48640;48.770;9.148;2023-07-29T03:07:05;18.20;99.90
62581;DHT22;48640;48.770;9.148;2023-07-29T03:09:32;18.10;99.90
62581;DHT22;48640;48.770;9.148;2023-07-29T03:11:59;18.10;99.90
62581;DHT22;48640;48.770;9.148;2023-07-29T03:14:26;18.10;99.90
62581;DHT22;48640;48.770;9.148;2023-07-29T03:16:53;18.10;99.90
62581;DHT22;48640;48.770;9.148;2023-07-29T03:19:20;18.10;99.90
62581;DHT22;48640;48.770;9.148;2023-07-29T03:21:48;18.10;99.90
62581;DHT22;48640;48.770;9.148;2023-07-29T03:24:15;18.10;99.90
62581;DHT22;48640;48.770;9.148;2023-07-29T03:26:42;18.10;99.90
62581;DHT22;48640;48.770;9.148;2023-07-29T03:29:09;18.10;99.90
62581;DHT22;48640;48.770;9.148;2023-07-29T03:31:36;18.10;99.90
62581;DHT22;48640;48.770;9.148;2023-07-29T03:34:02;18.20;99.90
62581;DHT22;48640;48.770;9.148;2023-07-29T03:36:29;18.20;99.90
62581;DHT22;48640;48.770;9.148;2023-07-29T03:38:57;18.20;99.90
62581;DHT22;48640;48.770;9.148;2023-07-29T03:41:26;18.20;99.90
62581;DHT22;48640;48.770;9.148;2023-07-29T03:43:52;18.20;99.90
62581;DHT22;48640;48.770;9.148;2023-07-29T03:46:19;18.20;99.90
62581;DHT22;48640;48.770;9.148;2023-07-29T03:48:47;18.30;99.90
62581;DHT22;48640;48.770;9.148;2023-07-29T03:51:14;18.20;99.90
62581;DHT22;48640;48.770;9.148;2023-07-29T03:53:41;18.20;99.90
62581;DHT22;48640;48.770;9.148;2023-07-29T03:56:09;18.20;99.90
62581;DHT22;48640;48.770;9.148;2023-07-29T03:58:36;18.20;99.90
62581;DHT22;48640;48.770;9.148;2023-07-29T04:01:03;18.20;99.90
62581;DHT22;48640;48.770;9.148;2023-07-29T04:03:30;18.20;99.90
62581;DHT22;48640;48.770;9.148;2023-07-29T04:05:57;18.20;99.90
62581;DHT22;48640;48.770;9.148;2023-07-29T04:08:23;18.20;99.90
62581;DHT22;48640;48.770;9.148;2023-07-29T04:10:50;18.10;99.90
62581;DHT22;48640;48.770;9.148;2023-07-29T04:13:18;18.10;99.90
62581;DHT22;48640;48.770;9.148;2023-07-29T04:15:45;18.20;99.90
62581;DHT22;48640;48.770;9.148;2023-07-29T04:18:15;18.20;99.90
62581;DHT22;48640;48.770;9.148;2023-07-29T04:20:42;18.10;99.90
62581;DHT22;48640;48.770;9.148;2023-07-29T04:23:08;18.10;99.90
62581;DHT22;48640;48.770;9.148;2023-07-29T04:25:35;18.10;99.90
62581;DHT22;48640;48.770;9.148;2023-07-29T04:28:02;18.10;99.90
62581;DHT22;48640;48.770;9.148;2023-07-29T04:30:32;18.10;99.90
62581;DHT22;48640;48.770;9.148;2023-07-29T04:32:58;18.10;99.90
62581;DHT22;48640;48.770;9.148;2023-07-29T04:35:25;18.10;99.90
62581;DHT22;48640;48.770;9.148;2023-07-29T04:37:52;18.10;99.90
62581;DHT22;48640;48.770;9.148;2023-07-29T04:40:19;18.10;99.90
62581;DHT22;48640;48.770;9.148;2023-07-29T04:42:48;18.00;99.90
62581;DHT22;48640;48.770;9.148;2023-07-29T04:45:15;18.10;99.90
62581;DHT22;48640;48.770;9.148;2023-07-29T04:47:43;18.10;99.90
62581;DHT22;48640;48.770;9.148;2023-07-29T04:50:10;18.10;99.90
62581;DHT22;48640;48.770;9.148;2023-07-29T04:52:37;18.10;99.90
62581;DHT22;48640;48.770;9.148;2023-07-29T04:55:04;18.10;99.90
62581;DHT22;48640;48.770;9.148;2023-07-29T04:57:31;18.10;99.90
62581;DHT22;48640;48.770;9.148;2023-07-29T04:59:58;18.10;99.90
62581;DHT22;48640;48.770;9.148;2023-07-29T05:02:25;18.10;99.90
62581;DHT22;48640;48.770;9.148;2023-07-29T05:04:54;18.10;99.90
62581;DHT22;48640;48.770;9.148;2023-07-29T05:07:21;18.20;99.90
62581;DHT22;48640;48.770;9.148;2023-07-29T05:09:48;18.20;99.90
62581;DHT22;48640;48.770;9.148;2023-07-29T05:12:14;18.20;99.90
62581;DHT22;48640;48.770;9.148;2023-07-29T05:14:42;18.20;99.90
62581;DHT22;48640;48.770;9.148;2023-07-29T05:17:08;18.20;99.90
62581;DHT22;48640;48.770;9.148;2023-07-29T05:19:35;18.20;99.90
62581;DHT22;48640;48.770;9.148;2023-07-29T05:22:04;18.30;99.90
62581;DHT22;48640;48.770;9.148;2023-07-29T05:24:31;18.30;99.90
62581;DHT22;48640;48.770;9.148;2023-07-29T05:26:58;18.30;99.90
62581;DHT22;48640;48.770;9.148;2023-07-29T05:29:25;18.40;99.90
62581;DHT22;48640;48.770;9.148;2023-07-29T05:31:52;18.40;99.90
62581;DHT22;48640;48.770;9.148;2023-07-29T05:34:19;18.40;99.90
62581;DHT22;48640;48.770;9.148;2023-07-29T05:36:46;18.50;99.90
62581;DHT22;48640;48.770;9.148;2023-07-29T05:39:14;18.60;99.90
62581;DHT22;48640;48.770;9.148;2023-07-29T05:41:41;18.70;99.90
62581;DHT22;48640;48.770;9.148;2023-07-29T05:44:08;18.60;99.90
62581;DHT22;48640;48.770;9.148;2023-07-29T05:46:34;18.80;99.90
62581;DHT22;48640;48.770;9.148;2023-07-29T05:49:01;18.80;99.90
62581;DHT22;48640;48.770;9.148;2023-07-29T05:51:28;18.90;99.90
62581;DHT22;48640;48.770;9.148;2023-07-29T05:53:55;19.00;99.90
62581;DHT22;48640;48.770;9.148;2023-07-29T05:56:24;19.10;99.90
62581;DHT22;48640;48.770;9.148;2023-07-29T05:58:50;19.20;99.90
62581;DHT22;48640;48.770;9.148;2023-07-29T06:01:18;19.20;99.90
62581;DHT22;48640;48.770;9.148;2023-07-29T06:03:46;19.30;99.90
62581;DHT22;48640;48.770;9.148;2023-07-29T06:06:13;19.50;99.90
62581;DHT22;48640;48.770;9.148;2023-07-29T06:08:40;19.70;99.90
62581;DHT22;48640;48.770;9.148;2023-07-29T06:11:07;20.00;99.90
62581;DHT22;48640;48.770;9.148;2023-07-29T06:13:35;20.40;99.90
62581;DHT22;48640;48.770;9.148;2023-07-29T06:16:02;20.60;99.90
62581;DHT22;48640;48.770;9.148;2023-07-29T06:18:29;20.70;99.90
62581;DHT22;48640;48.770;9.148;2023-07-29T06:20:56;20.80;99.90
62581;DHT22;48640;48.770;9.148;2023-07-29T06:23:23;20.80;99.90
62581;DHT22;48640;48.770;9.148;2023-07-29T06:25:50;20.80;99.90
62581;DHT22;48640;48.770;9.148;2023-07-29T06:28:17;21.00;99.90
62581;DHT22;48640;48.770;9.148;2023-07-29T06:30:48;21.20;99.90
62581;DHT22;48640;48.770;9.148;2023-07-29T06:33:15;21.30;99.90
62581;DHT22;48640;48.770;9.148;2023-07-29T06:35:42;21.30;99.90
62581;DHT22;48640;48.770;9.148;2023-07-29T06:38:10;21.20;99.90
62581;DHT22;48640;48.770;9.148;2023-07-29T06:40:37;21.10;99.90
62581;DHT22;48640;48.770;9.148;2023-07-29T06:43:04;20.80;99.90
62581;DHT22;48640;48.770;9.148;2023-07-29T06:45:31;20.70;99.90
62581;DHT22;48640;48.770;9.148;2023-07-29T06:47:59;20.60;99.90
62581;DHT22;48640;48.770;9.148;2023-07-29T06:50:26;20.60;99.90
62581;DHT22;48640;48.770;9.148;2023-07-29T06:52:53;20.60;99.90
62581;DHT22;48640;48.770;9.148;2023-07-29T06:55:20;20.60;99.90
62581;DHT22;48640;48.770;9.148;2023-07-29T06:57:47;20.50;99.90
62581;DHT22;48640;48.770;9.148;2023-07-29T07:00:14;20.40;99.90
62581;DHT22;48640;48.770;9.148;2023-07-29T07:02:41;20.20;99.90
62581;DHT22;48640;48.770;9.148;2023-07-29T07:05:10;20.20;99.90
62581;DHT22;48640;48.770;9.148;2023-07-29T07:07:38;20.00;99.90
62581;DHT22;48640;48.770;9.148;2023-07-29T07:10:05;19.90;99.90
62581;DHT22;48640;48.770;9.148;2023-07-29T07:12:32;19.80;99.90
62581;DHT22;48640;48.770;9.148;2023-07-29T07:15:00;19.90;99.90
62581;DHT22;48640;48.770;9.148;2023-07-29T07:17:27;19.70;99.90
62581;DHT22;48640;48.770;9.148;2023-07-29T07:19:54;19.60;99.90
62581;DHT22;48640;48.770;9.148;2023-07-29T07:22:22;19.50;99.90
62581;DHT22;48640;48.770;9.148;2023-07-29T07:24:49;19.50;99.90
62581;DHT22;48640;48.770;9.148;2023-07-29T07:27:16;19.50;99.90
62581;DHT22;48640;48.770;9.148;2023-07-29T07:29:43;19.50;99.90
62581;DHT22;48640;48.770;9.148;2023-07-29T07:32:10;19.60;99.90
62581;DHT22;48640;48.770;9.148;2023-07-29T07:34:37;19.50;99.90
62581;DHT22;48640;48.770;9.148;2023-07-29T07:37:04;19.60;99.90
62581;DHT22;48640;48.770;9.148;2023-07-29T07:39:33;19.70;99.90
62581;DHT22;48640;48.770;9.148;2023-07-29T07:42:00;19.80;99.90
62581;DHT22;48640;48.770;9.148;2023-07-29T07:44:27;19.80;99.90
62581;DHT22;48640;48.770;9.148;2023-07-29T07:46:54;19.90;99.90
62581;DHT22;48640;48.770;9.148;2023-07-29T07:49:21;19.90;99.90
62581;DHT22;48640;48.770;9.148;2023-07-29T07:51:48;20.00;99.90
62581;DHT22;48640;48.770;9.148;2023-07-29T07:54:15;20.00;99.90
62581;DHT22;48640;48.770;9.148;2023-07-29T07:56:43;20.00;99.90
62581;DHT22;48640;48.770;9.148;2023-07-29T07:59:10;20.10;99.90
62581;DHT22;48640;48.770;9.148;2023-07-29T08:01:38;20.20;99.90
62581;DHT22;48640;48.770;9.148;2023-07-29T08:04:05;20.30;99.90
62581;DHT22;48640;48.770;9.148;2023-07-29T08:06:32;20.60;99.90
62581;DHT22;48640;48.770;9.148;2023-07-29T08:09:01;21.00;99.90
62581;DHT22;48640;48.770;9.148;2023-07-29T08:11:28;21.10;99.90
62581;DHT22;48640;48.770;9.148;2023-07-29T08:13:58;21.20;99.90
62581;DHT22;48640;48.770;9.148;2023-07-29T08:16:25;21.20;99.90
62581;DHT22;48640;48.770;9.148;2023-07-29T08:18:53;21.40;99.90
62581;DHT22;48640;48.770;9.148;2023-07-29T08:21:20;21.70;99.90
62581;DHT22;48640;48.770;9.148;2023-07-29T08:23:47;21.90;99.90
62581;DHT22;48640;48.770;9.148;2023-07-29T08:26:14;22.00;99.90
62581;DHT22;48640;48.770;9.148;2023-07-29T08:28:42;22.10;99.90
62581;DHT22;48640;48.770;9.148;2023-07-29T08:31:10;22.00;99.90
62581;DHT22;48640;48.770;9.148;2023-07-29T08:33:37;21.90;99.90
62581;DHT22;48640;48.770;9.148;2023-07-29T08:36:04;21.80;99.90
62581;DHT22;48640;48.770;9.148;2023-07-29T08:38:31;21.80;99.90
62581;DHT22;48640;48.770;9.148;2023-07-29T08:41:12;21.90;99.90
62581;DHT22;48640;48.770;9.148;2023-07-29T08:43:44;22.10;99.90
62581;DHT22;48640;48.770;9.148;2023-07-29T08:46:16;22.30;99.90
62581;DHT22;48640;48.770;9.148;2023-07-29T08:48:46;22.60;99.90
62581;DHT22;48640;48.770;9.148;2023-07-29T08:51:14;23.00;99.90
62581;DHT22;48640;48.770;9.148;2023-07-29T08:53:42;23.40;99.90
62581;DHT22;48640;48.770;9.148;2023-07-29T08:56:09;23.80;99.90
62581;DHT22;48640;48.770;9.148;2023-07-29T08:58:36;24.60;99.90
62581;DHT22;48640;48.770;9.148;2023-07-29T09:01:04;26.30;99.90
62581;DHT22;48640;48.770;9.148;2023-07-29T09:03:32;27.60;98.10
62581;DHT22;48640;48.770;9.148;2023-07-29T09:05:59;28.60;92.20
62581;DHT22;48640;48.770;9.148;2023-07-29T09:08:27;28.80;90.00
62581;DHT22;48640;48.770;9.148;2023-07-29T09:10:55;28.30;90.50
62581;DHT22;48640;48.770;9.148;2023-07-29T09:13:22;27.60;90.90
62581;DHT22;48640;48.770;9.148;2023-07-29T09:15:49;27.00;91.60
62581;DHT22;48640;48.770;9.148;2023-07-29T09:18:20;26.20;92.90
62581;DHT22;48640;48.770;9.148;2023-07-29T09:20:50;25.90;94.70
62581;DHT22;48640;48.770;9.148;2023-07-29T09:23:16;26.30;95.10
62581;DHT22;48640;48.770;9.148;2023-07-29T09:25:46;26.70;92.80
62581;DHT22;48640;48.770;9.148;2023-07-29T09:28:14;27.20;92.00
62581;DHT22;48640;48.770;9.148;2023-07-29T09:30:46;27.20;90.30
62581;DHT22;48640;48.770;9.148;2023-07-29T09:33:13;27.40;90.50
62581;DHT22;48640;48.770;9.148;2023-07-29T09:35:40;28.20;91.50
62581;DHT22;48640;48.770;9.148;2023-07-29T09:38:08;28.60;90.30
62581;DHT22;48640;48.770;9.148;2023-07-29T09:40:41;28.90;90.10
62581;DHT22;48640;48.770;9.148;2023-07-29T09:43:10;28.40;86.20
62581;DHT22;48640;48.770;9.148;2023-07-29T09:45:37;27.90;89.80
62581;DHT22;48640;48.770;9.148;2023-07-29T09:48:05;27.50;90.90
62581;DHT22;48640;48.770;9.148;2023-07-29T09:50:35;27.40;90.60
62581;DHT22;48640;48.770;9.148;2023-07-29T09:53:08;27.70;90.90
62581;DHT22;48640;48.770;9.148;2023-07-29T09:55:35;28.30;86.60
62581;DHT22;48640;48.770;9.148;2023-07-29T09:58:02;27.90;82.30
62581;DHT22;48640;48.770;9.148;2023-07-29T10:00:32;27.80;85.50
62581;DHT22;48640;48.770;9.148;2023-07-29T10:03:00;28.50;86.30
62581;DHT22;48640;48.770;9.148;2023-07-29T10:05:27;30.40;76.30
62581;DHT22;48640;48.770;9.148;2023-07-29T10:07:55;32.70;67.60
62581;DHT22;48640;48.770;9.148;2023-07-29T10:10:24;34.20;57.00
62581;DHT22;48640;48.770;9.148;2023-07-29T10:12:50;34.20;53.70
62581;DHT22;48640;48.770;9.148;2023-07-29T10:15:18;34.40;53.20
62581;DHT22;48640;48.770;9.148;2023-07-29T10:17:46;34.50;52.10
62581;DHT22;48640;48.770;9.148;2023-07-29T10:20:13;34.00;51.50
62581;DHT22;48640;48.770;9.148;2023-07-29T10:22:41;33.20;54.50
62581;DHT22;48640;48.770;9.148;2023-07-29T10:25:10;32.70;54.70
62581;DHT22;48640;48.770;9.148;2023-07-29T10:27:43;32.60;55.20
62581;DHT22;48640;48.770;9.148;2023-07-29T10:30:13;32.00;55.60
62581;DHT22;48640;48.770;9.148;2023-07-29T10:32:42;31.70;57.90
62581;DHT22;48640;48.770;9.148;2023-07-29T10:35:10;30.90;58.00
62581;DHT22;48640;48.770;9.148;2023-07-29T10:37:37;30.00;60.90
62581;DHT22;48640;48.770;9.148;2023-07-29T10:40:07;29.30;65.20
62581;DHT22;48640;48.770;9.148;2023-07-29T10:42:34;28.80;69.50
62581;DHT22;48640;48.770;9.148;2023-07-29T10:45:18;28.40;73.50
62581;DHT22;48640;48.770;9.148;2023-07-29T10:47:45;28.60;75.70
62581;DHT22;48640;48.770;9.148;2023-07-29T10:50:17;28.50;75.50
62581;DHT22;48640;48.770;9.148;2023-07-29T10:52:49;27.90;80.60
62581;DHT22;48640;48.770;9.148;2023-07-29T10:55:27;28.10;82.30
62581;DHT22;48640;48.770;9.148;2023-07-29T11:00:51;29.50;71.70
62581;DHT22;48640;48.770;9.148;2023-07-29T11:03:18;29.50;70.50
62581;DHT22;48640;48.770;9.148;2023-07-29T11:05:47;29.40;68.50
62581;DHT22;48640;48.770;9.148;2023-07-29T11:08:19;29.20;68.20
62581;DHT22;48640;48.770;9.148;2023-07-29T11:10:58;29.30;67.90
62581;DHT22;48640;48.770;9.148;2023-07-29T11:13:26;29.10;68.10
62581;DHT22;48640;48.770;9.148;2023-07-29T11:15:56;28.40;70.20
62581;DHT22;48640;48.770;9.148;2023-07-29T11:18:27;28.40;72.20
62581;DHT22;48640;48.770;9.148;2023-07-29T11:20:56;28.20;71.90
62581;DHT22;48640;48.770;9.148;2023-07-29T11:23:31;28.10;72.30
62581;DHT22;48640;48.770;9.148;2023-07-29T11:25:59;28.20;73.40
62581;DHT22;48640;48.770;9.148;2023-07-29T11:28:26;28.10;72.40
62581;DHT22;48640;48.770;9.148;2023-07-29T11:30:55;27.90;73.30
62581;DHT22;48640;48.770;9.148;2023-07-29T11:33:24;27.50;73.40
62581;DHT22;48640;48.770;9.148;2023-07-29T11:35:51;26.90;73.60
62581;DHT22;48640;48.770;9.148;2023-07-29T11:38:19;26.50;75.40
62581;DHT22;48640;48.770;9.148;2023-07-29T11:40:57;26.40;79.40
62581;DHT22;48640;48.770;9.148;2023-07-29T11:43:24;26.70;78.50
62581;DHT22;48640;48.770;9.148;2023-07-29T11:45:52;26.80;79.40
62581;DHT22;48640;48.770;9.148;2023-07-29T11:48:26;26.90;77.10
62581;DHT22;48640;48.770;9.148;2023-07-29T11:50:53;26.90;76.20
62581;DHT22;48640;48.770;9.148;2023-07-29T11:53:20;27.10;76.30
62581;DHT22;48640;48.770;9.148;2023-07-29T11:55:50;27.60;80.80
62581;DHT22;48640;48.770;9.148;2023-07-29T11:58:17;28.30;73.80
62581;DHT22;48640;48.770;9.148;2023-07-29T12:00:44;29.20;73.40
62581;DHT22;48640;48.770;9.148;2023-07-29T12:03:11;30.10;67.90
62581;DHT22;48640;48.770;9.148;2023-07-29T12:05:40;30.00;62.80
62581;DHT22;48640;48.770;9.148;2023-07-29T12:08:08;30.30;62.60
62581;DHT22;48640;48.770;9.148;2023-07-29T12:10:35;30.50;59.70
62581;DHT22;48640;48.770;9.148;2023-07-29T12:13:03;30.40;59.20
62581;DHT22;48640;48.770;9.148;2023-07-29T12:15:30;30.70;62.70
62581;DHT22;48640;48.770;9.148;2023-07-29T12:17:57;31.20;61.90
62581;DHT22;48640;48.770;9.148;2023-07-29T12:20:25;31.20;57.10
62581;DHT22;48640;48.770;9.148;2023-07-29T12:22:54;30.50;57.20
62581;DHT22;48640;48.770;9.148;2023-07-29T12:25:21;30.30;58.40
62581;DHT22;48640;48.770;9.148;2023-07-29T12:27:51;30.10;57.40
62581;DHT22;48640;48.770;9.148;2023-07-29T12:30:20;30.00;57.90
62581;DHT22;48640;48.770;9.148;2023-07-29T12:32:47;29.70;58.00
62581;DHT22;48640;48.770;9.148;2023-07-29T12:35:15;29.50;60.30
62581;DHT22;48640;48.770;9.148;2023-07-29T12:37:42;29.50;59.10
62581;DHT22;48640;48.770;9.148;2023-07-29T12:40:21;29.70;58.60
62581;DHT22;48640;48.770;9.148;2023-07-29T12:42:48;29.80;55.80
62581;DHT22;48640;48.770;9.148;2023-07-29T12:45:15;29.90;57.20
62581;DHT22;48640;48.770;9.148;2023-07-29T12:47:42;30.00;55.30
62581;DHT22;48640;48.770;9.148;2023-07-29T12:50:10;30.10;53.20
62581;DHT22;48640;48.770;9.148;2023-07-29T12:52:37;29.90;53.60
62581;DHT22;48640;48.770;9.148;2023-07-29T12:55:04;29.70;54.90
62581;DHT22;48640;48.770;9.148;2023-07-29T12:57:33;29.60;54.50
62581;DHT22;48640;48.770;9.148;2023-07-29T12:59:59;29.40;54.20
62581;DHT22;48640;48.770;9.148;2023-07-29T13:02:26;29.20;55.00
62581;DHT22;48640;48.770;9.148;2023-07-29T13:04:53;29.20;54.50
62581;DHT22;48640;48.770;9.148;2023-07-29T13:07:20;29.10;55.20
62581;DHT22;48640;48.770;9.148;2023-07-29T13:09:47;28.90;54.30
62581;DHT22;48640;48.770;9.148;2023-07-29T13:12:13;28.60;56.70
62581;DHT22;48640;48.770;9.148;2023-07-29T13:14:42;28.70;55.40
62581;DHT22;48640;48.770;9.148;2023-07-29T13:17:08;28.90;55.20
62581;DHT22;48640;48.770;9.148;2023-07-29T13:19:35;28.80;54.50
62581;DHT22;48640;48.770;9.148;2023-07-29T13:22:02;28.60;55.60
62581;DHT22;48640;48.770;9.148;2023-07-29T13:24:29;28.40;56.90
62581;DHT22;48640;48.770;9.148;2023-07-29T13:26:57;28.10;55.80
62581;DHT22;48640;48.770;9.148;2023-07-29T13:29:24;27.90;56.60
62581;DHT22;48640;48.770;9.148;2023-07-29T13:31:53;27.80;58.10
62581;DHT22;48640;48.770;9.148;2023-07-29T13:34:20;27.70;58.50
62581;DHT22;48640;48.770;9.148;2023-07-29T13:36:47;27.70;59.90
62581;DHT22;48640;48.770;9.148;2023-07-29T13:39:13;27.70;59.60
62581;DHT22;48640;48.770;9.148;2023-07-29T13:41:40;27.50;57.80
62581;DHT22;48640;48.770;9.148;2023-07-29T13:44:07;27.30;60.40
62581;DHT22;48640;48.770;9.148;2023-07-29T13:46:34;27.30;60.70
62581;DHT22;48640;48.770;9.148;2023-07-29T13:49:02;27.40;60.30
62581;DHT22;48640;48.770;9.148;2023-07-29T13:51:29;27.40;60.80
62581;DHT22;48640;48.770;9.148;2023-07-29T13:53:56;27.50;58.80
62581;DHT22;48640;48.770;9.148;2023-07-29T13:56:22;27.50;58.50
62581;DHT22;48640;48.770;9.148;2023-07-29T13:58:49;27.50;59.90
62581;DHT22;48640;48.770;9.148;2023-07-29T14:01:16;27.30;58.70
62581;DHT22;48640;48.770;9.148;2023-07-29T14:03:43;27.30;59.90
62581;DHT22;48640;48.770;9.148;2023-07-29T14:06:11;27.40;60.40
62581;DHT22;48640;48.770;9.148;2023-07-29T14:08:38;27.60;59.10
62581;DHT22;48640;48.770;9.148;2023-07-29T14:11:06;27.80;58.60
62581;DHT22;48640;48.770;9.148;2023-07-29T14:13:33;27.70;57.80
62581;DHT22;48640;48.770;9.148;2023-07-29T14:16:00;27.70;59.40
62581;DHT22;48640;48.770;9.148;2023-07-29T14:18:27;27.90;60.40
62581;DHT22;48640;48.770;9.148;2023-07-29T14:20:54;27.70;58.00
62581;DHT22;48640;48.770;9.148;2023-07-29T14:23:22;27.60;58.70
62581;DHT22;48640;48.770;9.148;2023-07-29T14:25:49;27.40;59.20
62581;DHT22;48640;48.770;9.148;2023-07-29T14:28:16;27.60;61.40
62581;DHT22;48640;48.770;9.148;2023-07-29T14:30:42;27.70;60.00
62581;DHT22;48640;48.770;9.148;2023-07-29T14:33:10;27.60;60.70
62581;DHT22;48640;48.770;9.148;2023-07-29T14:35:36;27.40;59.40
62581;DHT22;48640;48.770;9.148;2023-07-29T14:38:03;27.20;60.10
62581;DHT22;48640;48.770;9.148;2023-07-29T14:40:31;26.90;60.60
62581;DHT22;48640;48.770;9.148;2023-07-29T14:42:58;26.70;62.10
62581;DHT22;48640;48.770;9.148;2023-07-29T14:45:25;26.50;63.60
62581;DHT22;48640;48.770;9.148;2023-07-29T14:47:52;26.40;65.30
62581;DHT22;48640;48.770;9.148;2023-07-29T14:50:18;26.20;64.90
62581;DHT22;48640;48.770;9.148;2023-07-29T14:52:45;26.30;65.70
62581;DHT22;48640;48.770;9.148;2023-07-29T14:55:12;26.20;66.50
62581;DHT22;48640;48.770;9.148;2023-07-29T14:57:40;26.10;65.50
62581;DHT22;48640;48.770;9.148;2023-07-29T15:00:08;26.20;66.50
62581;DHT22;48640;48.770;9.148;2023-07-29T15:02:35;26.30;66.50
62581;DHT22;48640;48.770;9.148;2023-07-29T15:05:02;26.40;64.70
62581;DHT22;48640;48.770;9.148;2023-07-29T15:07:29;26.40;64.50
62581;DHT22;48640;48.770;9.148;2023-07-29T15:09:56;26.30;65.50
62581;DHT22;48640;48.770;9.148;2023-07-29T15:12:23;26.30;65.70
62581;DHT22;48640;48.770;9.148;2023-07-29T15:14:51;26.30;66.00
62581;DHT22;48640;48.770;9.148;2023-07-29T15:17:18;26.30;65.80
62581;DHT22;48640;48.770;9.148;2023-07-29T15:19:45;26.30;65.90
62581;DHT22;48640;48.770;9.148;2023-07-29T15:22:15;26.40;67.90
62581;DHT22;48640;48.770;9.148;2023-07-29T15:24:42;26.40;68.10
62581;DHT22;48640;48.770;9.148;2023-07-29T15:27:09;26.50;67.00
62581;DHT22;48640;48.770;9.148;2023-07-29T15:29:36;26.50;66.90
62581;DHT22;48640;48.770;9.148;2023-07-29T15:32:06;26.50;66.40
62581;DHT22;48640;48.770;9.148;2023-07-29T15:34:32;26.40;67.10
62581;DHT22;48640;48.770;9.148;2023-07-29T15:37:00;26.50;66.30